Time;durP1;ratioP1;P1;durP2;ratioP2;P2;SDS_P1;SDS_P2;PMS_P1;PMS_P2;Temp;Humidity;BMP_temperature;BMP_pressure;BME280_temperature;BME280_humidity;BME280_pressure;Samples;Min_cycle;Max_cycle;Signal;HPM_P1;HPM_P2
2023/06/11 00:02:21;;;;;;;11.80;4.22;;;;;;;;;;5016900;28;20045;-70
2023/06/11 00:04:49;;;;;;;13.15;4.90;;;;;;;;;;5020725;28;20029;-63
2023/06/11 00:07:15;;;;;;;12.07;4.20;;;;;;;;;;5017191;28;20116;-63
2023/06/11 00:09:41;;;;;;;14.02;4.43;;;;;;;;;;5018513;28;20044;-63
2023/06/11 00:12:07;;;;;;;14.55;4.18;;;;;;;;;;5014398;28;20047;-63
2023/06/11 00:14:34;;;;;;;12.02;4.15;;;;;;;;;;5000678;28;20036;-63
2023/06/11 00:17:00;;;;;;;10.30;3.85;;;;;;;;;;5013296;28;20064;-61
2023/06/11 00:19:29;;;;;;;11.88;3.90;;;;;;;;;;5019064;28;20182;-61
2023/06/11 00:22:02;;;;;;;12.10;4.00;;;;;;;;;;5013349;28;20368;-61
2023/06/11 00:24:28;;;;;;;12.85;3.95;;;;;;;;;;4998381;28;20094;-63
2023/06/11 00:26:55;;;;;;;13.35;4.78;;;;;;;;;;4999790;28;20024;-64
2023/06/11 00:29:21;;;;;;;14.57;5.10;;;;;;;;;;5002167;28;20455;-63
2023/06/11 00:31:47;;;;;;;18.27;4.68;;;;;;;;;;5016627;28;20476;-64
2023/06/11 00:34:13;;;;;;;13.95;4.28;;;;;;;;;;5015577;28;20381;-63
2023/06/11 00:36:40;;;;;;;13.05;4.57;;;;;;;;;;5017793;28;20032;-66
2023/06/11 00:39:06;;;;;;;12.25;3.95;;;;;;;;;;5011491;28;20036;-63
2023/06/11 00:41:33;;;;;;;12.60;4.40;;;;;;;;;;4999726;28;20039;-63
2023/06/11 00:44:00;;;;;;;15.40;4.13;;;;;;;;;;5012154;28;20332;-63
2023/06/11 00:46:26;;;;;;;14.43;4.85;;;;;;;;;;4997208;28;20021;-62
2023/06/11 00:48:52;;;;;;;12.40;4.35;;;;;;;;;;5012271;28;20082;-63
2023/06/11 00:51:22;;;;;;;20.50;5.80;;;;;;;;;;5017219;28;20493;-63
2023/06/11 00:53:50;;;;;;;18.58;6.38;;;;;;;;;;5016859;28;20116;-64
2023/06/11 00:56:20;;;;;;;15.60;5.65;;;;;;;;;;5017837;28;20033;-62
2023/06/11 00:58:47;;;;;;;21.27;7.28;;;;;;;;;;5017015;28;20096;-62
2023/06/11 01:01:19;;;;;;;23.73;8.32;;;;;;;;;;5010728;28;20067;-63
2023/06/11 01:03:45;;;;;;;20.67;7.68;;;;;;;;;;5019794;28;22000;-62
2023/06/11 01:06:17;;;;;;;19.42;7.40;;;;;;;;;;5013640;28;20882;-63
2023/06/11 01:08:43;;;;;;;17.95;6.55;;;;;;;;;;5018411;28;20032;-62
2023/06/11 01:11:13;;;;;;;15.45;6.05;;;;;;;;;;5015852;28;21660;-63
2023/06/11 01:13:39;;;;;;;14.55;5.40;;;;;;;;;;5017776;28;20236;-63
2023/06/11 01:16:16;;;;;;;15.13;5.60;;;;;;;;;;5011731;28;20039;-63
2023/06/11 01:18:53;;;;;;;17.70;5.05;;;;;;;;;;5002320;28;20032;-63
2023/06/11 01:21:21;;;;;;;13.63;4.80;;;;;;;;;;5016903;28;20494;-63
2023/06/11 01:24:00;;;;;;;14.80;5.28;;;;;;;;;;5015501;28;20063;-65
2023/06/11 01:26:37;;;;;;;12.93;4.90;;;;;;;;;;5017717;28;20037;-63
2023/06/11 01:29:04;;;;;;;15.70;4.70;;;;;;;;;;5012924;28;20055;-63
2023/06/11 01:31:32;;;;;;;13.75;4.60;;;;;;;;;;5015883;28;20463;-63
2023/06/11 01:33:59;;;;;;;13.40;5.03;;;;;;;;;;5011926;28;20118;-64
2023/06/11 01:36:29;;;;;;;13.63;5.18;;;;;;;;;;5016795;28;20133;-62
2023/06/11 01:38:58;;;;;;;14.50;4.90;;;;;;;;;;5009172;28;20093;-62
2023/06/11 01:41:27;;;;;;;16.02;4.82;;;;;;;;;;5016514;28;20029;-62
2023/06/11 01:43:53;;;;;;;13.75;4.70;;;;;;;;;;5012992;28;20107;-62
2023/06/11 01:46:19;;;;;;;13.23;4.68;;;;;;;;;;4997228;28;20631;-62
2023/06/11 01:48:45;;;;;;;13.35;5.18;;;;;;;;;;5017588;28;20636;-63
2023/06/11 01:51:13;;;;;;;12.57;4.90;;;;;;;;;;5012356;28;20079;-63
2023/06/11 01:53:40;;;;;;;12.15;4.50;;;;;;;;;;5017744;28;20032;-64
2023/06/11 01:56:06;;;;;;;13.73;4.50;;;;;;;;;;4993652;28;20506;-64
2023/06/11 01:58:32;;;;;;;10.35;3.75;;;;;;;;;;4996861;28;20301;-63
2023/06/11 02:00:59;;;;;;;12.15;4.55;;;;;;;;;;5012697;28;20049;-64
2023/06/11 02:03:26;;;;;;;13.13;4.07;;;;;;;;;;5016883;28;20149;-64
2023/06/11 02:05:52;;;;;;;13.85;5.13;;;;;;;;;;5010697;28;20029;-61
2023/06/11 02:08:18;;;;;;;14.80;4.85;;;;;;;;;;5016399;28;20067;-62
2023/06/11 02:10:44;;;;;;;14.57;4.97;;;;;;;;;;5015410;28;20482;-63
2023/06/11 02:13:10;;;;;;;15.50;5.40;;;;;;;;;;5012425;28;20328;-63
2023/06/11 02:15:37;;;;;;;16.50;5.68;;;;;;;;;;5017559;28;20033;-62
2023/06/11 02:18:03;;;;;;;17.17;5.80;;;;;;;;;;5012656;28;20534;-62
2023/06/11 02:20:29;;;;;;;15.85;6.20;;;;;;;;;;5000645;28;20254;-63
2023/06/11 02:22:55;;;;;;;20.80;6.70;;;;;;;;;;5008805;28;20443;-63
2023/06/11 02:25:21;;;;;;;16.50;6.45;;;;;;;;;;5016464;28;20397;-63
2023/06/11 02:27:51;;;;;;;13.40;4.63;;;;;;;;;;5017297;28;20039;-63
2023/06/11 02:30:17;;;;;;;15.50;4.95;;;;;;;;;;4999920;28;20033;-63
2023/06/11 02:32:44;;;;;;;14.60;4.57;;;;;;;;;;5014892;28;20196;-63
2023/06/11 02:35:11;;;;;;;12.68;4.25;;;;;;;;;;4996719;28;20736;-63
2023/06/11 02:37:37;;;;;;;12.93;4.28;;;;;;;;;;4997535;28;20070;-64
2023/06/11 02:40:03;;;;;;;13.95;4.60;;;;;;;;;;5012035;28;20760;-62
2023/06/11 02:42:29;;;;;;;14.98;4.28;;;;;;;;;;5017397;28;20116;-63
2023/06/11 02:44:56;;;;;;;14.27;4.38;;;;;;;;;;4994928;28;20567;-63
2023/06/11 02:47:22;;;;;;;13.75;4.82;;;;;;;;;;4998558;28;20562;-63
2023/06/11 02:49:48;;;;;;;12.77;3.67;;;;;;;;;;4998042;28;20151;-61
2023/06/11 02:52:14;;;;;;;14.48;4.22;;;;;;;;;;4998339;28;20836;-61
2023/06/11 02:54:40;;;;;;;13.57;4.28;;;;;;;;;;5017123;28;20025;-62
2023/06/11 02:57:06;;;;;;;15.90;5.10;;;;;;;;;;5016389;28;20245;-62
2023/06/11 02:59:32;;;;;;;15.27;5.90;;;;;;;;;;5003778;28;20533;-62
2023/06/11 03:01:58;;;;;;;17.83;5.72;;;;;;;;;;5000973;28;20092;-62
2023/06/11 03:04:25;;;;;;;19.25;6.95;;;;;;;;;;5018269;28;20046;-62
2023/06/11 03:06:51;;;;;;;20.10;6.38;;;;;;;;;;5016751;28;20636;-62
2023/06/11 03:09:17;;;;;;;14.25;5.75;;;;;;;;;;5020313;28;20036;-62
2023/06/11 03:11:43;;;;;;;13.65;5.50;;;;;;;;;;5002129;28;20102;-62
2023/06/11 03:14:09;;;;;;;13.90;5.68;;;;;;;;;;5016065;28;20028;-62
2023/06/11 03:16:36;;;;;;;14.20;5.95;;;;;;;;;;5019496;28;20060;-62
2023/06/11 03:19:02;;;;;;;13.07;5.15;;;;;;;;;;4999877;28;20029;-62
2023/06/11 03:21:28;;;;;;;12.27;5.45;;;;;;;;;;5021206;28;20048;-63
2023/06/11 03:23:54;;;;;;;12.10;4.75;;;;;;;;;;5017992;28;20025;-63
2023/06/11 03:26:21;;;;;;;13.63;5.50;;;;;;;;;;5016778;28;20087;-63
2023/06/11 03:28:47;;;;;;;10.52;4.60;;;;;;;;;;5004209;28;20032;-62
2023/06/11 03:31:13;;;;;;;10.63;4.60;;;;;;;;;;5000100;28;20128;-63
2023/06/11 03:33:39;;;;;;;11.27;4.57;;;;;;;;;;5004228;28;20721;-63
2023/06/11 03:36:05;;;;;;;9.80;4.35;;;;;;;;;;5014236;28;20560;-63
2023/06/11 03:38:32;;;;;;;12.32;4.30;;;;;;;;;;5022552;28;20060;-62
2023/06/11 03:40:58;;;;;;;9.23;4.10;;;;;;;;;;4997863;28;20448;-63
2023/06/11 03:43:24;;;;;;;8.82;4.05;;;;;;;;;;5017988;28;20028;-63
2023/06/11 03:45:50;;;;;;;9.80;4.13;;;;;;;;;;5016137;28;20025;-62
2023/06/11 03:48:16;;;;;;;9.15;4.20;;;;;;;;;;5019638;28;20344;-63
2023/06/11 03:50:42;;;;;;;8.27;4.35;;;;;;;;;;5000082;28;20086;-62
2023/06/11 03:53:08;;;;;;;8.63;4.47;;;;;;;;;;4997858;28;20134;-62
2023/06/11 03:55:35;;;;;;;8.88;4.43;;;;;;;;;;5020227;28;20478;-63
2023/06/11 03:58:01;;;;;;;9.05;4.32;;;;;;;;;;4998057;28;20039;-63
2023/06/11 04:00:30;;;;;;;9.65;5.25;;;;;;;;;;5020327;28;20394;-62
2023/06/11 04:02:56;;;;;;;9.50;5.03;;;;;;;;;;5015408;28;20452;-62
2023/06/11 04:05:23;;;;;;;12.43;5.75;;;;;;;;;;4999729;28;20051;-62
2023/06/11 04:07:49;;;;;;;8.95;4.78;;;;;;;;;;5020307;28;20441;-63
2023/06/11 04:10:15;;;;;;;9.10;4.55;;;;;;;;;;5000020;28;20133;-64
2023/06/11 04:12:41;;;;;;;9.43;5.45;;;;;;;;;;5017679;28;20533;-63
2023/06/11 04:15:07;;;;;;;10.15;6.10;;;;;;;;;;5014853;28;20454;-63
2023/06/11 04:17:34;;;;;;;9.85;5.28;;;;;;;;;;5019607;28;20524;-63
2023/06/11 04:20:01;;;;;;;10.57;5.35;;;;;;;;;;5015911;28;20450;-63
2023/06/11 04:22:27;;;;;;;9.38;5.28;;;;;;;;;;5019722;28;20039;-63
2023/06/11 04:24:53;;;;;;;9.85;5.05;;;;;;;;;;4996498;28;20041;-63
2023/06/11 04:27:20;;;;;;;9.82;5.40;;;;;;;;;;5019623;28;20032;-64
2023/06/11 04:29:48;;;;;;;12.07;6.05;;;;;;;;;;5015389;28;20021;-63
2023/06/11 04:32:16;;;;;;;10.30;5.25;;;;;;;;;;4995036;28;20043;-64
2023/06/11 04:34:43;;;;;;;10.43;4.57;;;;;;;;;;4998529;28;20116;-63
2023/06/11 04:37:09;;;;;;;11.25;4.68;;;;;;;;;;4999476;28;20098;-63
2023/06/11 04:39:36;;;;;;;11.10;5.28;;;;;;;;;;5001591;28;20869;-62
2023/06/11 04:42:02;;;;;;;12.50;5.25;;;;;;;;;;5013590;28;20069;-62
2023/06/11 04:44:29;;;;;;;10.65;4.40;;;;;;;;;;5015478;28;20033;-62
2023/06/11 04:46:57;;;;;;;13.57;4.90;;;;;;;;;;5015517;28;20136;-62
2023/06/11 04:49:23;;;;;;;10.77;4.22;;;;;;;;;;5018837;28;20110;-63
2023/06/11 04:51:52;;;;;;;9.75;4.00;;;;;;;;;;5001136;28;20029;-62
2023/06/11 04:54:21;;;;;;;13.95;4.70;;;;;;;;;;5014838;28;20090;-62
2023/06/11 04:56:47;;;;;;;10.95;4.53;;;;;;;;;;5019438;28;20025;-61
2023/06/11 04:59:13;;;;;;;10.30;3.97;;;;;;;;;;5014014;28;20021;-62
2023/06/11 05:01:46;;;;;;;9.43;3.95;;;;;;;;;;5002048;28;20565;-63
2023/06/11 05:04:13;;;;;;;10.77;4.22;;;;;;;;;;4996743;28;20029;-63
2023/06/11 05:06:44;;;;;;;9.65;4.18;;;;;;;;;;5014735;28;20372;-64
2023/06/11 05:09:11;;;;;;;9.35;3.88;;;;;;;;;;5017262;28;20037;-62
2023/06/11 05:11:37;;;;;;;8.43;3.65;;;;;;;;;;5017561;28;20032;-62
2023/06/11 05:14:03;;;;;;;9.18;4.05;;;;;;;;;;4996356;28;20028;-62
2023/06/11 05:16:29;;;;;;;9.88;3.72;;;;;;;;;;5015301;28;20034;-63
2023/06/11 05:18:56;;;;;;;9.13;3.63;;;;;;;;;;5000960;28;20091;-63
2023/06/11 05:21:22;;;;;;;10.00;3.85;;;;;;;;;;5015618;28;20379;-63
2023/06/11 05:23:48;;;;;;;10.15;3.85;;;;;;;;;;5000646;28;20465;-63
2023/06/11 05:26:15;;;;;;;10.38;4.00;;;;;;;;;;5014080;28;20025;-63
2023/06/11 05:28:41;;;;;;;11.05;4.25;;;;;;;;;;5017834;28;20033;-62
2023/06/11 05:31:11;;;;;;;9.38;3.90;;;;;;;;;;4997023;28;20044;-61
2023/06/11 05:33:37;;;;;;;9.13;4.00;;;;;;;;;;5018663;28;20423;-62
2023/06/11 05:36:04;;;;;;;10.02;4.10;;;;;;;;;;4997604;28;20033;-62
2023/06/11 05:38:31;;;;;;;8.52;3.60;;;;;;;;;;5001279;28;20033;-62
2023/06/11 05:40:57;;;;;;;9.98;3.92;;;;;;;;;;4998475;28;20033;-63
2023/06/11 05:43:23;;;;;;;9.55;4.03;;;;;;;;;;5016687;28;20032;-63
2023/06/11 05:45:50;;;;;;;12.57;4.10;;;;;;;;;;5019341;28;20025;-63
2023/06/11 05:48:17;;;;;;;10.05;4.55;;;;;;;;;;5015534;28;20048;-63
2023/06/11 05:50:43;;;;;;;9.95;4.68;;;;;;;;;;5020114;28;20344;-63
2023/06/11 05:53:09;;;;;;;10.13;3.92;;;;;;;;;;5012676;28;20040;-64
2023/06/11 05:55:37;;;;;;;9.60;3.60;;;;;;;;;;5019340;28;20025;-63
2023/06/11 05:58:04;;;;;;;10.32;3.95;;;;;;;;;;5012560;28;20091;-63
2023/06/11 06:00:30;;;;;;;9.50;3.60;;;;;;;;;;5018850;28;20028;-63
2023/06/11 06:02:56;;;;;;;10.20;3.50;;;;;;;;;;5014710;28;20483;-63
2023/06/11 06:05:23;;;;;;;9.27;3.55;;;;;;;;;;5018385;28;20029;-63
2023/06/11 06:07:49;;;;;;;9.25;3.63;;;;;;;;;;5015991;28;20031;-63
2023/06/11 06:10:15;;;;;;;9.65;3.78;;;;;;;;;;5019480;28;20039;-64
2023/06/11 06:12:41;;;;;;;8.70;3.60;;;;;;;;;;5018139;28;20029;-63
2023/06/11 06:15:08;;;;;;;9.65;3.72;;;;;;;;;;5014675;28;20072;-63
2023/06/11 06:17:34;;;;;;;9.95;3.55;;;;;;;;;;5000144;28;20040;-63
2023/06/11 06:20:00;;;;;;;8.80;3.75;;;;;;;;;;4997031;28;20045;-62
2023/06/11 06:22:26;;;;;;;13.43;4.50;;;;;;;;;;5017650;28;20098;-63
2023/06/11 06:24:52;;;;;;;11.75;3.33;;;;;;;;;;5014721;28;20048;-63
2023/06/11 06:27:19;;;;;;;11.35;3.78;;;;;;;;;;5017114;28;20284;-64
2023/06/11 06:29:45;;;;;;;9.18;2.97;;;;;;;;;;4999708;28;20786;-63
2023/06/11 06:32:11;;;;;;;11.23;3.47;;;;;;;;;;4996260;28;20185;-62
2023/06/11 06:34:37;;;;;;;10.40;3.72;;;;;;;;;;5018022;28;20032;-63
2023/06/11 06:37:03;;;;;;;8.77;2.90;;;;;;;;;;5014072;28;20116;-63
2023/06/11 06:39:30;;;;;;;11.77;3.75;;;;;;;;;;5002190;28;20427;-63
2023/06/11 06:41:56;;;;;;;9.80;3.60;;;;;;;;;;5016078;28;20169;-62
2023/06/11 06:44:22;;;;;;;9.85;3.35;;;;;;;;;;5017730;28;20120;-62
2023/06/11 06:46:49;;;;;;;9.95;3.35;;;;;;;;;;5018370;28;20431;-63
2023/06/11 06:49:15;;;;;;;9.82;3.53;;;;;;;;;;5014803;28;20308;-62
2023/06/11 06:51:41;;;;;;;11.63;3.53;;;;;;;;;;5015550;28;20096;-62
2023/06/11 06:54:07;;;;;;;12.40;3.67;;;;;;;;;;5014784;28;20033;-63
2023/06/11 06:56:33;;;;;;;11.23;3.75;;;;;;;;;;5000323;28;20032;-64
2023/06/11 06:58:59;;;;;;;11.00;3.30;;;;;;;;;;5012735;28;20124;-62
2023/06/11 07:01:26;;;;;;;11.20;3.47;;;;;;;;;;5016004;28;20049;-63
2023/06/11 07:03:52;;;;;;;11.50;3.97;;;;;;;;;;5013524;28;20065;-63
2023/06/11 07:06:18;;;;;;;10.20;3.38;;;;;;;;;;5017579;28;20021;-63
2023/06/11 07:08:44;;;;;;;12.40;3.42;;;;;;;;;;5017583;28;20688;-62
2023/06/11 07:11:10;;;;;;;16.88;4.22;;;;;;;;;;5014283;28;20545;-63
2023/06/11 07:13:37;;;;;;;17.83;4.55;;;;;;;;;;5017964;28;20025;-62
2023/06/11 07:16:03;;;;;;;12.52;3.45;;;;;;;;;;5015295;28;20654;-63
2023/06/11 07:18:29;;;;;;;10.63;3.15;;;;;;;;;;5016250;28;20378;-62
2023/06/11 07:20:55;;;;;;;9.18;2.88;;;;;;;;;;4995740;28;20463;-62
2023/06/11 07:23:21;;;;;;;13.90;3.78;;;;;;;;;;5018602;28;20022;-63
2023/06/11 07:25:49;;;;;;;10.40;3.40;;;;;;;;;;5014832;28;20486;-64
2023/06/11 07:28:16;;;;;;;11.52;3.47;;;;;;;;;;5013245;28;20021;-63
2023/06/11 07:30:42;;;;;;;10.98;3.10;;;;;;;;;;5016562;28;20025;-62
2023/06/11 07:33:08;;;;;;;11.15;3.00;;;;;;;;;;5014716;28;20505;-63
2023/06/11 07:35:34;;;;;;;11.18;3.38;;;;;;;;;;5015426;28;20473;-63
2023/06/11 07:38:01;;;;;;;11.20;2.85;;;;;;;;;;5001387;28;20028;-63
2023/06/11 07:40:27;;;;;;;11.20;3.45;;;;;;;;;;5021384;28;20041;-64
2023/06/11 07:42:53;;;;;;;12.32;3.90;;;;;;;;;;5014325;28;20136;-63
2023/06/11 07:45:20;;;;;;;12.05;3.40;;;;;;;;;;5017268;28;20810;-64
2023/06/11 07:47:46;;;;;;;13.30;3.58;;;;;;;;;;5001438;28;20037;-63
2023/06/11 07:50:13;;;;;;;11.27;3.17;;;;;;;;;;4998547;28;20397;-63
2023/06/11 07:52:39;;;;;;;11.93;3.35;;;;;;;;;;5020673;28;20064;-64
2023/06/11 07:55:05;;;;;;;13.35;3.40;;;;;;;;;;5015493;28;20047;-63
2023/06/11 07:57:32;;;;;;;10.55;3.13;;;;;;;;;;5019753;28;20630;-63
2023/06/11 07:59:58;;;;;;;9.60;2.92;;;;;;;;;;5016456;28;20713;-63
2023/06/11 08:02:24;;;;;;;11.88;3.00;;;;;;;;;;5020415;28;20581;-64
2023/06/11 08:04:51;;;;;;;12.32;3.03;;;;;;;;;;5018145;28;20017;-64
2023/06/11 08:07:17;;;;;;;10.93;3.20;;;;;;;;;;5020756;28;20032;-63
2023/06/11 08:09:43;;;;;;;13.70;4.65;;;;;;;;;;5019999;28;20018;-63
2023/06/11 08:12:11;;;;;;;12.23;3.95;;;;;;;;;;5013604;28;20486;-64
2023/06/11 08:14:37;;;;;;;13.35;4.40;;;;;;;;;;5016464;28;20076;-64
2023/06/11 08:17:04;;;;;;;13.20;4.60;;;;;;;;;;4999660;28;20320;-63
2023/06/11 08:19:30;;;;;;;11.50;3.30;;;;;;;;;;5020196;28;20033;-63
2023/06/11 08:21:56;;;;;;;11.80;4.00;;;;;;;;;;4999976;28;20777;-64
2023/06/11 08:24:22;;;;;;;12.52;3.58;;;;;;;;;;5002501;28;20506;-63
2023/06/11 08:26:49;;;;;;;11.38;3.58;;;;;;;;;;5017284;28;20471;-63
2023/06/11 08:29:16;;;;;;;9.80;2.97;;;;;;;;;;5017349;28;20029;-62
2023/06/11 08:31:42;;;;;;;10.65;3.05;;;;;;;;;;5021278;28;20514;-63
2023/06/11 08:34:09;;;;;;;13.05;3.28;;;;;;;;;;4999162;28;20430;-63
2023/06/11 08:36:35;;;;;;;9.88;2.75;;;;;;;;;;5019237;28;20053;-64
2023/06/11 08:39:01;;;;;;;11.55;2.95;;;;;;;;;;5016334;28;20029;-64
2023/06/11 08:41:31;;;;;;;11.55;3.17;;;;;;;;;;5017915;28;20040;-62
2023/06/11 08:43:58;;;;;;;12.70;3.17;;;;;;;;;;5000615;28;20036;-65
2023/06/11 08:46:24;;;;;;;9.98;2.85;;;;;;;;;;5016196;28;20033;-65
2023/06/11 08:49:05;;;;;;;10.90;3.13;;;;;;;;;;5020346;28;20028;-63
2023/06/11 08:51:35;;;;;;;9.90;2.83;;;;;;;;;;5013677;28;20083;-63
2023/06/11 08:54:01;;;;;;;9.02;2.42;;;;;;;;;;4995018;28;20029;-64
2023/06/11 08:56:28;;;;;;;9.82;2.80;;;;;;;;;;5016239;28;20051;-63
2023/06/11 08:58:55;;;;;;;9.75;2.72;;;;;;;;;;5013465;28;20045;-63
2023/06/11 09:01:22;;;;;;;9.57;3.00;;;;;;;;;;5013167;28;20107;-64
2023/06/11 09:03:48;;;;;;;10.63;2.90;;;;;;;;;;5013883;28;20029;-62
2023/06/11 09:06:14;;;;;;;10.18;2.40;;;;;;;;;;5012805;28;20135;-63
2023/06/11 09:08:40;;;;;;;11.07;2.80;;;;;;;;;;5022590;28;20711;-64
2023/06/11 09:11:07;;;;;;;9.00;2.50;;;;;;;;;;5016406;28;20360;-64
2023/06/11 09:13:33;;;;;;;11.93;3.17;;;;;;;;;;5016977;28;20433;-63
2023/06/11 09:15:59;;;;;;;9.82;2.90;;;;;;;;;;5013201;28;20135;-63
2023/06/11 09:18:26;;;;;;;12.48;3.13;;;;;;;;;;5018122;28;20171;-63
2023/06/11 09:20:53;;;;;;;12.07;2.97;;;;;;;;;;5015335;28;20033;-63
2023/06/11 09:23:32;;;;;;;9.80;3.20;;;;;;;;;;5018704;28;20349;-64
2023/06/11 09:26:02;;;;;;;8.38;2.42;;;;;;;;;;4999760;28;20062;-64
2023/06/11 09:28:29;;;;;;;10.05;3.00;;;;;;;;;;5017361;28;20822;-64
2023/06/11 09:30:56;;;;;;;11.80;2.95;;;;;;;;;;4998640;28;20075;-63
2023/06/11 09:33:23;;;;;;;8.55;2.40;;;;;;;;;;5019045;28;20036;-64
2023/06/11 09:35:49;;;;;;;10.05;2.72;;;;;;;;;;5002349;28;20032;-64
2023/06/11 09:38:19;;;;;;;7.45;2.30;;;;;;;;;;5014728;28;20040;-65
2023/06/11 09:40:46;;;;;;;9.13;2.65;;;;;;;;;;5020279;28;20756;-65
2023/06/11 09:43:13;;;;;;;8.45;2.30;;;;;;;;;;5016927;28;20626;-65
2023/06/11 09:45:41;;;;;;;8.10;2.28;;;;;;;;;;5004687;28;20442;-63
2023/06/11 09:48:11;;;;;;;9.30;2.45;;;;;;;;;;5016963;28;20025;-63
2023/06/11 09:50:37;;;;;;;7.85;2.42;;;;;;;;;;5017471;28;20398;-64
2023/06/11 09:53:04;;;;;;;11.18;2.80;;;;;;;;;;5003598;28;20501;-64
2023/06/11 09:55:36;;;;;;;10.00;2.78;;;;;;;;;;5001334;28;20635;-63
2023/06/11 09:58:03;;;;;;;9.35;2.72;;;;;;;;;;5015239;28;20578;-65
2023/06/11 10:00:30;;;;;;;9.52;3.67;;;;;;;;;;5017918;28;20028;-64
2023/06/11 10:02:57;;;;;;;9.38;2.95;;;;;;;;;;5015243;28;20523;-64
2023/06/11 10:05:23;;;;;;;11.00;3.55;;;;;;;;;;5020297;28;20088;-64
2023/06/11 10:07:58;;;;;;;9.35;2.88;;;;;;;;;;5020247;28;20053;-63
2023/06/11 10:10:24;;;;;;;11.07;3.23;;;;;;;;;;5020072;28;20448;-63
2023/06/11 10:12:51;;;;;;;9.10;3.38;;;;;;;;;;5004964;28;20025;-64
2023/06/11 10:15:17;;;;;;;9.82;3.20;;;;;;;;;;5023136;28;20421;-63
2023/06/11 10:17:47;;;;;;;9.52;2.58;;;;;;;;;;5019779;28;20029;-65
2023/06/11 10:20:29;;;;;;;7.50;2.20;;;;;;;;;;5021551;28;20639;-65
2023/06/11 10:23:05;;;;;;;8.63;2.20;;;;;;;;;;5018417;28;20796;-63
2023/06/11 10:25:35;;;;;;;9.88;2.33;;;;;;;;;;5006458;28;20043;-64
2023/06/11 10:28:02;;;;;;;9.95;2.28;;;;;;;;;;5018513;28;20573;-66
2023/06/11 10:30:28;;;;;;;9.40;2.60;;;;;;;;;;5023639;28;20035;-64
2023/06/11 10:32:56;;;;;;;7.40;2.15;;;;;;;;;;5017177;28;20029;-64
2023/06/11 10:35:24;;;;;;;8.23;2.38;;;;;;;;;;5024550;28;20033;-64
2023/06/11 10:37:50;;;;;;;9.82;2.20;;;;;;;;;;5022375;28;20574;-65
2023/06/11 10:40:17;;;;;;;7.93;2.03;;;;;;;;;;5023280;28;20039;-65
2023/06/11 10:42:43;;;;;;;9.48;2.55;;;;;;;;;;5020506;28;20446;-64
2023/06/11 10:45:10;;;;;;;9.60;2.30;;;;;;;;;;5020347;28;20592;-64
2023/06/11 10:47:50;;;;;;;6.45;1.85;;;;;;;;;;5005830;28;20141;-67
2023/06/11 10:50:17;;;;;;;7.72;2.30;;;;;;;;;;5025770;28;20028;-65
2023/06/11 10:52:48;;;;;;;8.95;2.28;;;;;;;;;;5003849;28;20039;-63
2023/06/11 10:55:15;;;;;;;9.80;2.33;;;;;;;;;;5016593;28;20033;-67
2023/06/11 10:57:41;;;;;;;7.32;2.13;;;;;;;;;;5023633;28;20056;-65
2023/06/11 11:00:09;;;;;;;7.45;2.35;;;;;;;;;;5019673;28;20040;-64
2023/06/11 11:02:35;;;;;;;8.13;2.65;;;;;;;;;;5002049;28;20045;-66
2023/06/11 11:05:02;;;;;;;8.32;2.25;;;;;;;;;;5004172;28;20037;-66
2023/06/11 11:07:34;;;;;;;9.18;2.53;;;;;;;;;;5026563;28;20053;-63
2023/06/11 11:10:07;;;;;;;7.68;2.28;;;;;;;;;;5019024;28;20023;-65
2023/06/11 11:12:39;;;;;;;12.73;3.65;;;;;;;;;;5025688;28;20482;-64
2023/06/11 11:15:08;;;;;;;8.43;2.70;;;;;;;;;;5021709;28;20155;-65
2023/06/11 11:17:35;;;;;;;11.52;2.90;;;;;;;;;;5009724;28;20425;-64
2023/06/11 11:20:01;;;;;;;11.75;3.70;;;;;;;;;;5005087;28;20536;-64
2023/06/11 11:22:29;;;;;;;11.07;3.33;;;;;;;;;;5012502;28;20021;-65
2023/06/11 11:25:05;;;;;;;9.57;2.90;;;;;;;;;;5020135;28;20272;-65
2023/06/11 11:27:31;;;;;;;10.45;3.05;;;;;;;;;;5026291;28;20025;-65
2023/06/11 11:29:58;;;;;;;12.00;3.42;;;;;;;;;;5010058;28;20024;-65
2023/06/11 11:32:26;;;;;;;11.18;3.25;;;;;;;;;;5029963;28;20461;-66
2023/06/11 11:34:53;;;;;;;9.75;2.97;;;;;;;;;;5024739;28;20086;-67
2023/06/11 11:37:19;;;;;;;10.52;3.47;;;;;;;;;;5024615;28;20692;-65
2023/06/11 11:39:46;;;;;;;10.65;3.70;;;;;;;;;;5027230;28;20045;-67
2023/06/11 11:42:12;;;;;;;14.13;3.60;;;;;;;;;;5025017;28;20539;-65
2023/06/11 11:44:39;;;;;;;12.90;4.00;;;;;;;;;;5007015;28;20593;-65
2023/06/11 11:47:08;;;;;;;12.18;3.80;;;;;;;;;;5023443;28;20059;-65
2023/06/11 11:49:35;;;;;;;13.70;4.00;;;;;;;;;;5026094;28;20125;-66
2023/06/11 11:52:01;;;;;;;14.30;4.22;;;;;;;;;;5023701;28;20430;-65
2023/06/11 11:54:27;;;;;;;13.20;3.92;;;;;;;;;;5024132;28;20534;-66
2023/06/11 11:57:25;;;;;;;13.45;4.32;;;;;;;;;;5022531;28;20033;-65
2023/06/11 11:59:55;;;;;;;15.25;3.97;;;;;;;;;;5008016;28;20079;-66
2023/06/11 12:02:26;;;;;;;14.23;4.40;;;;;;;;;;5024085;28;20141;-65
2023/06/11 12:04:57;;;;;;;10.63;4.00;;;;;;;;;;5020536;28;20033;-64
2023/06/11 12:07:23;;;;;;;11.35;4.07;;;;;;;;;;5021971;28;20143;-64
2023/06/11 12:09:49;;;;;;;13.18;3.80;;;;;;;;;;5024709;28;20037;-66
2023/06/11 12:12:16;;;;;;;11.30;3.72;;;;;;;;;;5025419;28;20601;-65
2023/06/11 12:14:42;;;;;;;10.10;3.47;;;;;;;;;;5026315;28;20037;-65
2023/06/11 12:17:10;;;;;;;11.30;3.67;;;;;;;;;;5005082;28;20094;-66
2023/06/11 12:19:37;;;;;;;12.48;4.07;;;;;;;;;;5021750;28;20086;-65
2023/06/11 12:22:06;;;;;;;11.07;3.40;;;;;;;;;;5019657;28;20037;-65
2023/06/11 12:24:32;;;;;;;11.07;3.80;;;;;;;;;;5022786;28;20230;-65
2023/06/11 12:26:59;;;;;;;12.45;3.85;;;;;;;;;;5023502;28;20102;-65
2023/06/11 12:29:25;;;;;;;11.32;3.42;;;;;;;;;;5023768;28;20269;-65
2023/06/11 12:31:52;;;;;;;8.95;3.08;;;;;;;;;;5021961;28;20194;-66
2023/06/11 12:34:18;;;;;;;9.90;3.35;;;;;;;;;;5023889;28;20091;-65
2023/06/11 12:36:44;;;;;;;9.75;3.00;;;;;;;;;;5026095;28;20460;-66
2023/06/11 12:39:11;;;;;;;9.75;2.55;;;;;;;;;;5005923;28;21351;-65
2023/06/11 12:41:37;;;;;;;9.77;3.00;;;;;;;;;;5024659;28;20102;-65
2023/06/11 12:44:03;;;;;;;11.63;3.20;;;;;;;;;;5021704;28;20068;-65
2023/06/11 12:46:36;;;;;;;12.63;2.60;;;;;;;;;;5008148;28;20378;-67
2023/06/11 12:49:02;;;;;;;9.10;3.03;;;;;;;;;;5020125;28;20059;-65
2023/06/11 12:51:28;;;;;;;12.52;5.00;;;;;;;;;;5024100;28;20355;-66
2023/06/11 12:53:54;;;;;;;9.32;3.03;;;;;;;;;;5023923;28;20064;-65
2023/06/11 12:56:23;;;;;;;9.77;3.00;;;;;;;;;;5025606;28;20113;-66
2023/06/11 12:58:49;;;;;;;10.38;3.33;;;;;;;;;;5024868;28;20451;-65
2023/06/11 13:01:16;;;;;;;10.57;3.53;;;;;;;;;;5026518;28;20336;-66
2023/06/11 13:03:42;;;;;;;16.55;7.80;;;;;;;;;;5029098;28;20037;-65
2023/06/11 13:06:08;;;;;;;19.08;13.30;;;;;;;;;;5023643;28;20636;-65
2023/06/11 13:08:35;;;;;;;13.48;6.85;;;;;;;;;;5025353;28;20112;-67
2023/06/11 13:11:01;;;;;;;17.00;7.05;;;;;;;;;;5008071;28;20450;-65
2023/06/11 13:13:29;;;;;;;12.90;5.10;;;;;;;;;;5024599;28;20112;-69
2023/06/11 13:15:55;;;;;;;12.73;5.05;;;;;;;;;;5020842;28;20124;-66
2023/06/11 13:18:21;;;;;;;11.50;2.80;;;;;;;;;;5008366;28;20763;-66
2023/06/11 13:20:47;;;;;;;11.32;3.65;;;;;;;;;;5021673;28;20036;-65
2023/06/11 13:23:19;;;;;;;8.40;2.42;;;;;;;;;;5003239;28;20111;-64
2023/06/11 13:25:45;;;;;;;11.73;2.95;;;;;;;;;;5023785;28;20025;-65
2023/06/11 13:28:11;;;;;;;8.20;2.50;;;;;;;;;;5005623;28;20806;-66
2023/06/11 13:30:38;;;;;;;7.47;2.10;;;;;;;;;;5023109;28;20021;-66
2023/06/11 13:33:04;;;;;;;9.07;2.00;;;;;;;;;;5018644;28;20360;-65
2023/06/11 13:35:30;;;;;;;7.90;2.25;;;;;;;;;;5022012;28;20033;-65
2023/06/11 13:37:57;;;;;;;7.90;2.25;;;;;;;;;;5020909;28;20045;-65
2023/06/11 13:40:23;;;;;;;7.45;2.20;;;;;;;;;;5023523;28;20116;-65
2023/06/11 13:42:49;;;;;;;9.50;2.33;;;;;;;;;;5022573;28;20122;-66
2023/06/11 13:45:15;;;;;;;10.85;2.65;;;;;;;;;;5019622;28;20036;-65
2023/06/11 13:47:42;;;;;;;8.68;2.30;;;;;;;;;;5007912;28;20028;-65
2023/06/11 13:50:08;;;;;;;8.43;2.50;;;;;;;;;;5001507;28;20437;-65
2023/06/11 13:52:34;;;;;;;9.38;2.75;;;;;;;;;;5024111;28;20113;-65
2023/06/11 13:55:00;;;;;;;9.85;2.60;;;;;;;;;;5019977;28;20028;-65
2023/06/11 13:57:27;;;;;;;10.73;3.05;;;;;;;;;;5003576;28;20821;-66
2023/06/11 13:59:54;;;;;;;8.02;2.08;;;;;;;;;;5018933;28;20025;-65
2023/06/11 14:02:20;;;;;;;8.25;2.35;;;;;;;;;;5020771;28;20083;-65
2023/06/11 14:04:46;;;;;;;7.90;2.53;;;;;;;;;;5021275;28;20424;-66
2023/06/11 14:07:12;;;;;;;8.85;2.30;;;;;;;;;;5016112;28;20426;-64
2023/06/11 14:09:39;;;;;;;8.90;2.50;;;;;;;;;;5007443;28;20075;-65
2023/06/11 14:12:06;;;;;;;9.55;2.17;;;;;;;;;;5016860;28;20105;-65
2023/06/11 14:14:32;;;;;;;11.30;2.92;;;;;;;;;;5019299;28;20115;-65
2023/06/11 14:17:01;;;;;;;8.43;2.25;;;;;;;;;;4996750;28;20033;-65
2023/06/11 14:19:28;;;;;;;8.32;2.25;;;;;;;;;;5015603;28;20531;-65
2023/06/11 14:21:54;;;;;;;9.38;2.40;;;;;;;;;;5011637;28;20044;-66
2023/06/11 14:24:20;;;;;;;9.90;2.47;;;;;;;;;;5022025;28;20036;-65
2023/06/11 14:26:46;;;;;;;9.88;3.10;;;;;;;;;;5015595;28;20468;-65
2023/06/11 14:29:12;;;;;;;9.38;2.85;;;;;;;;;;5015035;28;20021;-65
2023/06/11 14:31:38;;;;;;;7.97;2.58;;;;;;;;;;5018236;28;20453;-66
2023/06/11 14:34:04;;;;;;;9.02;3.00;;;;;;;;;;5015263;28;20549;-66
2023/06/11 14:36:31;;;;;;;9.00;2.85;;;;;;;;;;5018616;28;20040;-64